sensor_id;sensor_type;location;lat;lon;timestamp;temperature;humidity
5940;DHT22;2995;-31.998;115.906;2022-07-12T00:01:57;6.50;99.90
5940;DHT22;2995;-31.998;115.906;2022-07-12T00:04:30;6.60;99.90
5940;DHT22;2995;-31.998;115.906;2022-07-12T00:07:02;6.60;99.90
5940;DHT22;2995;-31.998;115.906;2022-07-12T00:09:33;6.70;99.90
5940;DHT22;2995;-31.998;115.906;2022-07-12T00:12:04;6.90;99.90
5940;DHT22;2995;-31.998;115.906;2022-07-12T00:14:36;6.90;99.90
5940;DHT22;2995;-31.998;115.906;2022-07-12T00:17:07;7.10;99.90
5940;DHT22;2995;-31.998;115.906;2022-07-12T00:19:40;7.20;99.90
5940;DHT22;2995;-31.998;115.906;2022-07-12T00:22:12;7.10;99.90
5940;DHT22;2995;-31.998;115.906;2022-07-12T00:24:43;7.20;99.90
5940;DHT22;2995;-31.998;115.906;2022-07-12T00:27:14;7.30;99.90
5940;DHT22;2995;-31.998;115.906;2022-07-12T00:29:46;7.40;99.90
5940;DHT22;2995;-31.998;115.906;2022-07-12T00:32:17;7.50;99.90
5940;DHT22;2995;-31.998;115.906;2022-07-12T00:34:50;7.60;99.90
5940;DHT22;2995;-31.998;115.906;2022-07-12T00:37:21;7.60;99.90
5940;DHT22;2995;-31.998;115.906;2022-07-12T00:39:53;7.80;99.90
5940;DHT22;2995;-31.998;115.906;2022-07-12T00:42:24;8.00;99.90
5940;DHT22;2995;-31.998;115.906;2022-07-12T00:44:55;8.10;99.90
5940;DHT22;2995;-31.998;115.906;2022-07-12T00:47:33;8.20;99.90
5940;DHT22;2995;-31.998;115.906;2022-07-12T00:50:11;8.10;99.90
5940;DHT22;2995;-31.998;115.906;2022-07-12T00:52:43;8.30;99.90
5940;DHT22;2995;-31.998;115.906;2022-07-12T00:55:15;8.40;99.90
5940;DHT22;2995;-31.998;115.906;2022-07-12T00:57:48;8.50;99.90
5940;DHT22;2995;-31.998;115.906;2022-07-12T01:00:22;8.60;99.90
5940;DHT22;2995;-31.998;115.906;2022-07-12T01:02:55;8.80;99.90
5940;DHT22;2995;-31.998;115.906;2022-07-12T01:05:29;9.00;99.90
5940;DHT22;2995;-31.998;115.906;2022-07-12T01:08:00;9.10;99.90
5940;DHT22;2995;-31.998;115.906;2022-07-12T01:10:32;9.30;99.90
5940;DHT22;2995;-31.998;115.906;2022-07-12T01:13:03;9.40;99.90
5940;DHT22;2995;-31.998;115.906;2022-07-12T01:15:35;9.50;99.90
5940;DHT22;2995;-31.998;115.906;2022-07-12T01:18:07;9.60;99.90
5940;DHT22;2995;-31.998;115.906;2022-07-12T01:20:42;9.70;99.90
5940;DHT22;2995;-31.998;115.906;2022-07-12T01:23:16;9.80;99.90
5940;DHT22;2995;-31.998;115.906;2022-07-12T01:25:48;9.90;99.90
5940;DHT22;2995;-31.998;115.906;2022-07-12T01:28:19;10.00;99.90
5940;DHT22;2995;-31.998;115.906;2022-07-12T01:30:51;10.00;99.90
5940;DHT22;2995;-31.998;115.906;2022-07-12T01:33:23;10.20;99.90
5940;DHT22;2995;-31.998;115.906;2022-07-12T01:35:56;10.40;99.90
5940;DHT22;2995;-31.998;115.906;2022-07-12T01:38:29;10.60;99.90
5940;DHT22;2995;-31.998;115.906;2022-07-12T01:41:01;10.70;99.90
5940;DHT22;2995;-31.998;115.906;2022-07-12T01:43:33;10.80;99.90
5940;DHT22;2995;-31.998;115.906;2022-07-12T01:46:04;10.90;99.90
5940;DHT22;2995;-31.998;115.906;2022-07-12T01:48:36;11.10;99.90
5940;DHT22;2995;-31.998;115.906;2022-07-12T01:51:07;11.20;99.90
5940;DHT22;2995;-31.998;115.906;2022-07-12T01:53:40;11.30;99.90
5940;DHT22;2995;-31.998;115.906;2022-07-12T01:56:12;11.60;99.90
5940;DHT22;2995;-31.998;115.906;2022-07-12T01:58:43;11.60;99.90
5940;DHT22;2995;-31.998;115.906;2022-07-12T02:01:14;11.70;99.90
5940;DHT22;2995;-31.998;115.906;2022-07-12T02:03:46;11.80;99.90
5940;DHT22;2995;-31.998;115.906;2022-07-12T02:06:18;11.90;99.90
5940;DHT22;2995;-31.998;115.906;2022-07-12T02:08:52;11.90;99.90
5940;DHT22;2995;-31.998;115.906;2022-07-12T02:11:23;12.10;99.90
5940;DHT22;2995;-31.998;115.906;2022-07-12T02:13:55;12.30;99.90
5940;DHT22;2995;-31.998;115.906;2022-07-12T02:16:26;12.40;99.90
5940;DHT22;2995;-31.998;115.906;2022-07-12T02:18:57;12.50;99.90
5940;DHT22;2995;-31.998;115.906;2022-07-12T02:21:28;12.50;99.90
5940;DHT22;2995;-31.998;115.906;2022-07-12T02:24:02;12.60;99.90
5940;DHT22;2995;-31.998;115.906;2022-07-12T02:26:34;12.70;99.90
5940;DHT22;2995;-31.998;115.906;2022-07-12T02:29:06;12.90;99.90
5940;DHT22;2995;-31.998;115.906;2022-07-12T02:31:38;13.00;99.90
5940;DHT22;2995;-31.998;115.906;2022-07-12T02:34:09;13.10;99.90
5940;DHT22;2995;-31.998;115.906;2022-07-12T02:36:40;13.10;99.90
5940;DHT22;2995;-31.998;115.906;2022-07-12T02:39:14;13.10;99.90
5940;DHT22;2995;-31.998;115.906;2022-07-12T02:41:45;13.30;99.90
5940;DHT22;2995;-31.998;115.906;2022-07-12T02:44:16;13.40;99.90
5940;DHT22;2995;-31.998;115.906;2022-07-12T02:46:48;13.50;99.90
5940;DHT22;2995;-31.998;115.906;2022-07-12T02:49:19;13.70;99.90
5940;DHT22;2995;-31.998;115.906;2022-07-12T02:51:51;13.70;99.90
5940;DHT22;2995;-31.998;115.906;2022-07-12T02:54:25;13.80;99.90
5940;DHT22;2995;-31.998;115.906;2022-07-12T02:56:56;13.70;99.90
5940;DHT22;2995;-31.998;115.906;2022-07-12T02:59:27;14.10;99.90
5940;DHT22;2995;-31.998;115.906;2022-07-12T03:01:58;14.10;99.90
5940;DHT22;2995;-31.998;115.906;2022-07-12T03:04:29;14.20;99.90
5940;DHT22;2995;-31.998;115.906;2022-07-12T03:07:01;14.30;99.90
5940;DHT22;2995;-31.998;115.906;2022-07-12T03:09:34;14.40;99.90
5940;DHT22;2995;-31.998;115.906;2022-07-12T03:12:06;14.50;99.90
5940;DHT22;2995;-31.998;115.906;2022-07-12T03:14:37;14.70;99.90
5940;DHT22;2995;-31.998;115.906;2022-07-12T03:17:08;14.70;99.90
5940;DHT22;2995;-31.998;115.906;2022-07-12T03:19:39;14.80;99.90
5940;DHT22;2995;-31.998;115.906;2022-07-12T03:22:11;14.80;99.90
5940;DHT22;2995;-31.998;115.906;2022-07-12T03:24:44;14.90;99.90
5940;DHT22;2995;-31.998;115.906;2022-07-12T03:27:15;15.10;99.90
5940;DHT22;2995;-31.998;115.906;2022-07-12T03:29:46;15.20;99.90
5940;DHT22;2995;-31.998;115.906;2022-07-12T03:32:18;15.20;99.90
5940;DHT22;2995;-31.998;115.906;2022-07-12T03:34:49;15.30;99.90
5940;DHT22;2995;-31.998;115.906;2022-07-12T03:37:20;15.50;99.90
5940;DHT22;2995;-31.998;115.906;2022-07-12T03:39:54;15.60;99.90
5940;DHT22;2995;-31.998;115.906;2022-07-12T03:42:25;15.50;99.90
5940;DHT22;2995;-31.998;115.906;2022-07-12T03:44:56;15.70;99.90
5940;DHT22;2995;-31.998;115.906;2022-07-12T03:47:27;15.80;99.90
5940;DHT22;2995;-31.998;115.906;2022-07-12T03:49:59;15.80;99.90
5940;DHT22;2995;-31.998;115.906;2022-07-12T03:52:33;16.00;99.90
5940;DHT22;2995;-31.998;115.906;2022-07-12T03:55:07;16.00;99.90
5940;DHT22;2995;-31.998;115.906;2022-07-12T03:57:38;16.00;99.90
5940;DHT22;2995;-31.998;115.906;2022-07-12T04:00:11;16.10;99.90
5940;DHT22;2995;-31.998;115.906;2022-07-12T04:02:43;16.10;99.90
5940;DHT22;2995;-31.998;115.906;2022-07-12T04:05:14;16.20;99.90
5940;DHT22;2995;-31.998;115.906;2022-07-12T04:07:45;16.20;99.90
5940;DHT22;2995;-31.998;115.906;2022-07-12T04:10:18;16.40;99.90
5940;DHT22;2995;-31.998;115.906;2022-07-12T04:12:49;16.40;99.90
5940;DHT22;2995;-31.998;115.906;2022-07-12T04:15:21;16.50;99.90
5940;DHT22;2995;-31.998;115.906;2022-07-12T04:17:52;16.50;99.90
5940;DHT22;2995;-31.998;115.906;2022-07-12T04:20:23;16.50;99.90
5940;DHT22;2995;-31.998;115.906;2022-07-12T04:22:55;16.60;99.90
5940;DHT22;2995;-31.998;115.906;2022-07-12T04:25:28;16.80;99.90
5940;DHT22;2995;-31.998;115.906;2022-07-12T04:27:59;16.90;99.90
5940;DHT22;2995;-31.998;115.906;2022-07-12T04:30:31;17.00;99.90
5940;DHT22;2995;-31.998;115.906;2022-07-12T04:33:02;16.90;99.90
5940;DHT22;2995;-31.998;115.906;2022-07-12T04:35:33;17.10;99.90
5940;DHT22;2995;-31.998;115.906;2022-07-12T04:38:05;17.10;99.90
5940;DHT22;2995;-31.998;115.906;2022-07-12T04:40:40;17.00;99.90
5940;DHT22;2995;-31.998;115.906;2022-07-12T04:43:11;17.20;99.90
5940;DHT22;2995;-31.998;115.906;2022-07-12T04:45:42;17.10;99.90
5940;DHT22;2995;-31.998;115.906;2022-07-12T04:48:14;17.20;99.90
5940;DHT22;2995;-31.998;115.906;2022-07-12T04:50:45;17.30;99.90
5940;DHT22;2995;-31.998;115.906;2022-07-12T04:53:16;17.40;99.90
5940;DHT22;2995;-31.998;115.906;2022-07-12T04:55:50;17.40;99.90
5940;DHT22;2995;-31.998;115.906;2022-07-12T04:58:21;17.30;99.90
5940;DHT22;2995;-31.998;115.906;2022-07-12T05:00:52;17.50;99.90
5940;DHT22;2995;-31.998;115.906;2022-07-12T05:03:23;17.50;99.90
5940;DHT22;2995;-31.998;115.906;2022-07-12T05:05:56;17.70;99.90
5940;DHT22;2995;-31.998;115.906;2022-07-12T05:08:28;17.70;99.90
5940;DHT22;2995;-31.998;115.906;2022-07-12T05:11:01;17.70;99.90
5940;DHT22;2995;-31.998;115.906;2022-07-12T05:13:33;17.60;99.90
5940;DHT22;2995;-31.998;115.906;2022-07-12T05:16:06;17.50;99.90
5940;DHT22;2995;-31.998;115.906;2022-07-12T05:18:38;17.50;99.90
5940;DHT22;2995;-31.998;115.906;2022-07-12T05:21:09;17.50;99.90
5940;DHT22;2995;-31.998;115.906;2022-07-12T05:23:41;17.50;99.90
5940;DHT22;2995;-31.998;115.906;2022-07-12T05:26:14;17.60;99.90
5940;DHT22;2995;-31.998;115.906;2022-07-12T05:28:46;17.70;99.90
5940;DHT22;2995;-31.998;115.906;2022-07-12T05:31:17;17.70;99.90
5940;DHT22;2995;-31.998;115.906;2022-07-12T05:33:49;17.70;99.90
5940;DHT22;2995;-31.998;115.906;2022-07-12T05:36:20;17.70;99.90
5940;DHT22;2995;-31.998;115.906;2022-07-12T05:38:51;17.80;99.90
5940;DHT22;2995;-31.998;115.906;2022-07-12T05:41:25;17.80;99.90
5940;DHT22;2995;-31.998;115.906;2022-07-12T05:43:56;17.90;99.90
5940;DHT22;2995;-31.998;115.906;2022-07-12T05:46:28;18.10;99.90
5940;DHT22;2995;-31.998;115.906;2022-07-12T05:48:59;18.20;99.90
5940;DHT22;2995;-31.998;115.906;2022-07-12T05:51:31;18.20;99.90
5940;DHT22;2995;-31.998;115.906;2022-07-12T05:54:18;18.10;99.90
5940;DHT22;2995;-31.998;115.906;2022-07-12T05:56:51;18.00;99.90
5940;DHT22;2995;-31.998;115.906;2022-07-12T05:59:22;17.90;99.90
5940;DHT22;2995;-31.998;115.906;2022-07-12T06:01:54;17.90;99.90
5940;DHT22;2995;-31.998;115.906;2022-07-12T06:04:25;17.90;99.90
5940;DHT22;2995;-31.998;115.906;2022-07-12T06:06:56;18.00;99.90
5940;DHT22;2995;-31.998;115.906;2022-07-12T06:09:28;17.90;99.90
5940;DHT22;2995;-31.998;115.906;2022-07-12T06:12:01;17.90;99.90
5940;DHT22;2995;-31.998;115.906;2022-07-12T06:14:33;18.00;99.90
5940;DHT22;2995;-31.998;115.906;2022-07-12T06:17:05;18.00;99.90
5940;DHT22;2995;-31.998;115.906;2022-07-12T06:19:36;17.90;99.90
5940;DHT22;2995;-31.998;115.906;2022-07-12T06:22:07;17.90;99.90
5940;DHT22;2995;-31.998;115.906;2022-07-12T06:24:39;18.00;99.90
5940;DHT22;2995;-31.998;115.906;2022-07-12T06:27:12;17.90;99.90
5940;DHT22;2995;-31.998;115.906;2022-07-12T06:29:43;17.90;99.90
5940;DHT22;2995;-31.998;115.906;2022-07-12T06:32:16;18.00;99.90
5940;DHT22;2995;-31.998;115.906;2022-07-12T06:34:47;18.10;99.90
5940;DHT22;2995;-31.998;115.906;2022-07-12T06:37:18;18.20;99.90
5940;DHT22;2995;-31.998;115.906;2022-07-12T06:39:49;18.20;99.90
5940;DHT22;2995;-31.998;115.906;2022-07-12T06:42:23;18.30;99.90
5940;DHT22;2995;-31.998;115.906;2022-07-12T06:44:54;18.20;99.90
5940;DHT22;2995;-31.998;115.906;2022-07-12T06:47:25;18.10;99.90
5940;DHT22;2995;-31.998;115.906;2022-07-12T06:49:57;18.10;99.90
5940;DHT22;2995;-31.998;115.906;2022-07-12T06:52:28;18.10;99.90
5940;DHT22;2995;-31.998;115.906;2022-07-12T06:55:00;18.00;99.90
5940;DHT22;2995;-31.998;115.906;2022-07-12T06:57:33;18.00;99.90
5940;DHT22;2995;-31.998;115.906;2022-07-12T07:00:06;18.00;99.90
5940;DHT22;2995;-31.998;115.906;2022-07-12T07:02:39;18.00;99.90
5940;DHT22;2995;-31.998;115.906;2022-07-12T07:05:10;18.00;99.90
5940;DHT22;2995;-31.998;115.906;2022-07-12T07:07:43;18.00;99.90
5940;DHT22;2995;-31.998;115.906;2022-07-12T07:10:14;18.00;99.90
5940;DHT22;2995;-31.998;115.906;2022-07-12T07:12:48;17.90;99.90
5940;DHT22;2995;-31.998;115.906;2022-07-12T07:15:19;17.90;99.90
5940;DHT22;2995;-31.998;115.906;2022-07-12T07:17:50;17.90;99.90
5940;DHT22;2995;-31.998;115.906;2022-07-12T07:20:21;17.80;99.90
5940;DHT22;2995;-31.998;115.906;2022-07-12T07:22:53;17.70;99.90
5940;DHT22;2995;-31.998;115.906;2022-07-12T07:25:24;17.70;99.90
5940;DHT22;2995;-31.998;115.906;2022-07-12T07:27:58;17.70;99.90
5940;DHT22;2995;-31.998;115.906;2022-07-12T07:30:29;17.70;99.90
5940;DHT22;2995;-31.998;115.906;2022-07-12T07:33:16;17.70;99.90
5940;DHT22;2995;-31.998;115.906;2022-07-12T07:35:48;17.80;99.90
5940;DHT22;2995;-31.998;115.906;2022-07-12T07:38:20;17.70;99.90
5940;DHT22;2995;-31.998;115.906;2022-07-12T07:40:51;17.60;99.90
5940;DHT22;2995;-31.998;115.906;2022-07-12T07:43:24;17.50;99.90
5940;DHT22;2995;-31.998;115.906;2022-07-12T07:45:56;17.40;99.90
5940;DHT22;2995;-31.998;115.906;2022-07-12T07:48:27;17.30;99.90
5940;DHT22;2995;-31.998;115.906;2022-07-12T07:50:58;17.20;99.90
5940;DHT22;2995;-31.998;115.906;2022-07-12T07:53:30;17.20;99.90
5940;DHT22;2995;-31.998;115.906;2022-07-12T07:56:01;17.10;99.90
5940;DHT22;2995;-31.998;115.906;2022-07-12T07:58:35;17.10;99.90
5940;DHT22;2995;-31.998;115.906;2022-07-12T08:01:06;17.00;99.90
5940;DHT22;2995;-31.998;115.906;2022-07-12T08:03:37;17.00;99.90
5940;DHT22;2995;-31.998;115.906;2022-07-12T08:06:09;17.00;99.90
5940;DHT22;2995;-31.998;115.906;2022-07-12T08:08:40;17.00;99.90
5940;DHT22;2995;-31.998;115.906;2022-07-12T08:11:11;17.00;99.90
5940;DHT22;2995;-31.998;115.906;2022-07-12T08:13:44;17.00;99.90
5940;DHT22;2995;-31.998;115.906;2022-07-12T08:16:16;17.10;99.90
5940;DHT22;2995;-31.998;115.906;2022-07-12T08:18:47;17.10;99.90
5940;DHT22;2995;-31.998;115.906;2022-07-12T08:21:18;17.10;99.90
5940;DHT22;2995;-31.998;115.906;2022-07-12T08:23:49;17.10;99.90
5940;DHT22;2995;-31.998;115.906;2022-07-12T08:26:21;17.10;99.90
5940;DHT22;2995;-31.998;115.906;2022-07-12T08:28:54;17.10;99.90
5940;DHT22;2995;-31.998;115.906;2022-07-12T08:31:26;17.10;99.90
5940;DHT22;2995;-31.998;115.906;2022-07-12T08:33:57;17.00;99.90
5940;DHT22;2995;-31.998;115.906;2022-07-12T08:36:28;17.00;99.90
5940;DHT22;2995;-31.998;115.906;2022-07-12T08:39:00;16.90;99.90
5940;DHT22;2995;-31.998;115.906;2022-07-12T08:41:31;16.90;99.90
5940;DHT22;2995;-31.998;115.906;2022-07-12T08:44:05;16.90;99.90
5940;DHT22;2995;-31.998;115.906;2022-07-12T08:46:36;16.80;99.90
5940;DHT22;2995;-31.998;115.906;2022-07-12T08:49:08;16.80;99.90
5940;DHT22;2995;-31.998;115.906;2022-07-12T08:51:39;16.80;99.90
5940;DHT22;2995;-31.998;115.906;2022-07-12T08:54:12;16.80;99.90
5940;DHT22;2995;-31.998;115.906;2022-07-12T08:56:44;16.70;99.90
5940;DHT22;2995;-31.998;115.906;2022-07-12T08:59:18;16.60;99.90
5940;DHT22;2995;-31.998;115.906;2022-07-12T09:01:50;16.50;99.90
5940;DHT22;2995;-31.998;115.906;2022-07-12T09:04:22;16.40;99.90
5940;DHT22;2995;-31.998;115.906;2022-07-12T09:06:53;16.30;99.90
5940;DHT22;2995;-31.998;115.906;2022-07-12T09:09:28;16.20;99.90
5940;DHT22;2995;-31.998;115.906;2022-07-12T09:12:00;16.10;99.90
5940;DHT22;2995;-31.998;115.906;2022-07-12T09:14:34;16.00;99.90
5940;DHT22;2995;-31.998;115.906;2022-07-12T09:17:06;15.90;99.90
5940;DHT22;2995;-31.998;115.906;2022-07-12T09:19:55;15.80;99.90
5940;DHT22;2995;-31.998;115.906;2022-07-12T09:22:26;15.60;99.90
5940;DHT22;2995;-31.998;115.906;2022-07-12T09:24:57;15.50;99.90
5940;DHT22;2995;-31.998;115.906;2022-07-12T09:27:33;15.30;99.90
5940;DHT22;2995;-31.998;115.906;2022-07-12T09:30:11;15.20;99.90
5940;DHT22;2995;-31.998;115.906;2022-07-12T09:32:54;15.10;99.90
5940;DHT22;2995;-31.998;115.906;2022-07-12T09:35:41;15.00;99.90
5940;DHT22;2995;-31.998;115.906;2022-07-12T09:38:28;14.90;99.90
5940;DHT22;2995;-31.998;115.906;2022-07-12T09:41:00;14.80;99.90
5940;DHT22;2995;-31.998;115.906;2022-07-12T09:43:32;14.70;99.90
5940;DHT22;2995;-31.998;115.906;2022-07-12T09:46:06;14.60;99.90
5940;DHT22;2995;-31.998;115.906;2022-07-12T09:48:38;14.50;99.90
5940;DHT22;2995;-31.998;115.906;2022-07-12T09:51:10;14.50;99.90
5940;DHT22;2995;-31.998;115.906;2022-07-12T09:53:45;14.40;99.90
5940;DHT22;2995;-31.998;115.906;2022-07-12T09:56:17;14.30;99.90
5940;DHT22;2995;-31.998;115.906;2022-07-12T09:58:53;14.20;99.90
5940;DHT22;2995;-31.998;115.906;2022-07-12T10:01:26;14.10;99.90
5940;DHT22;2995;-31.998;115.906;2022-07-12T10:03:59;14.10;99.90
5940;DHT22;2995;-31.998;115.906;2022-07-12T10:06:31;14.10;99.90
5940;DHT22;2995;-31.998;115.906;2022-07-12T10:09:02;14.00;99.90
5940;DHT22;2995;-31.998;115.906;2022-07-12T10:11:35;13.90;99.90
5940;DHT22;2995;-31.998;115.906;2022-07-12T10:14:10;13.80;99.90
5940;DHT22;2995;-31.998;115.906;2022-07-12T10:16:45;13.70;99.90
5940;DHT22;2995;-31.998;115.906;2022-07-12T10:19:24;13.60;99.90
5940;DHT22;2995;-31.998;115.906;2022-07-12T10:21:57;13.60;99.90
5940;DHT22;2995;-31.998;115.906;2022-07-12T10:24:52;13.60;99.90
5940;DHT22;2995;-31.998;115.906;2022-07-12T10:27:33;13.40;99.90
5940;DHT22;2995;-31.998;115.906;2022-07-12T10:30:20;13.40;99.90
5940;DHT22;2995;-31.998;115.906;2022-07-12T10:32:55;13.30;99.90
5940;DHT22;2995;-31.998;115.906;2022-07-12T10:35:28;13.30;99.90
5940;DHT22;2995;-31.998;115.906;2022-07-12T10:38:17;13.20;99.90
5940;DHT22;2995;-31.998;115.906;2022-07-12T10:40:50;13.10;99.90
5940;DHT22;2995;-31.998;115.906;2022-07-12T10:43:28;13.10;99.90
5940;DHT22;2995;-31.998;115.906;2022-07-12T10:46:23;13.10;99.90
5940;DHT22;2995;-31.998;115.906;2022-07-12T10:49:26;13.00;99.90
5940;DHT22;2995;-31.998;115.906;2022-07-12T10:52:24;13.00;99.90
5940;DHT22;2995;-31.998;115.906;2022-07-12T10:55:16;13.00;99.90
5940;DHT22;2995;-31.998;115.906;2022-07-12T10:57:49;12.90;99.90
5940;DHT22;2995;-31.998;115.906;2022-07-12T11:00:22;12.80;99.90
5940;DHT22;2995;-31.998;115.906;2022-07-12T11:02:53;12.70;99.90
5940;DHT22;2995;-31.998;115.906;2022-07-12T11:05:30;12.70;99.90
5940;DHT22;2995;-31.998;115.906;2022-07-12T11:08:01;12.60;99.90
5940;DHT22;2995;-31.998;115.906;2022-07-12T11:10:33;12.50;99.90
5940;DHT22;2995;-31.998;115.906;2022-07-12T11:13:20;12.50;99.90
5940;DHT22;2995;-31.998;115.906;2022-07-12T11:15:58;12.40;99.90
5940;DHT22;2995;-31.998;115.906;2022-07-12T11:18:30;12.40;99.90
5940;DHT22;2995;-31.998;115.906;2022-07-12T11:21:04;12.30;99.90
5940;DHT22;2995;-31.998;115.906;2022-07-12T11:23:36;12.30;99.90
5940;DHT22;2995;-31.998;115.906;2022-07-12T11:26:09;12.20;99.90
5940;DHT22;2995;-31.998;115.906;2022-07-12T11:28:41;12.20;99.90
5940;DHT22;2995;-31.998;115.906;2022-07-12T11:31:13;12.10;99.90
5940;DHT22;2995;-31.998;115.906;2022-07-12T11:33:46;12.10;99.90
5940;DHT22;2995;-31.998;115.906;2022-07-12T11:36:24;12.10;99.90
5940;DHT22;2995;-31.998;115.906;2022-07-12T11:38:56;12.10;99.90
5940;DHT22;2995;-31.998;115.906;2022-07-12T11:41:28;12.00;99.90
5940;DHT22;2995;-31.998;115.906;2022-07-12T11:43:59;11.90;99.90
5940;DHT22;2995;-31.998;115.906;2022-07-12T11:46:30;11.90;99.90
5940;DHT22;2995;-31.998;115.906;2022-07-12T11:49:02;11.80;99.90
5940;DHT22;2995;-31.998;115.906;2022-07-12T11:51:36;11.80;99.90
5940;DHT22;2995;-31.998;115.906;2022-07-12T11:54:08;11.70;99.90
5940;DHT22;2995;-31.998;115.906;2022-07-12T11:56:39;11.70;99.90
5940;DHT22;2995;-31.998;115.906;2022-07-12T11:59:11;11.60;99.90
5940;DHT22;2995;-31.998;115.906;2022-07-12T12:01:43;11.60;99.90
5940;DHT22;2995;-31.998;115.906;2022-07-12T12:04:14;11.60;99.90
5940;DHT22;2995;-31.998;115.906;2022-07-12T12:06:49;11.50;99.90
5940;DHT22;2995;-31.998;115.906;2022-07-12T12:09:20;11.50;99.90
5940;DHT22;2995;-31.998;115.906;2022-07-12T12:11:51;11.50;99.90
5940;DHT22;2995;-31.998;115.906;2022-07-12T12:14:22;11.50;99.90
5940;DHT22;2995;-31.998;115.906;2022-07-12T12:16:54;11.40;99.90
5940;DHT22;2995;-31.998;115.906;2022-07-12T12:19:25;11.40;99.90
5940;DHT22;2995;-31.998;115.906;2022-07-12T12:21:58;11.40;99.90
5940;DHT22;2995;-31.998;115.906;2022-07-12T12:24:30;11.30;99.90
5940;DHT22;2995;-31.998;115.906;2022-07-12T12:27:01;11.30;99.90
5940;DHT22;2995;-31.998;115.906;2022-07-12T12:29:41;11.20;99.90
5940;DHT22;2995;-31.998;115.906;2022-07-12T12:32:18;11.20;99.90
5940;DHT22;2995;-31.998;115.906;2022-07-12T12:35:08;11.20;99.90
5940;DHT22;2995;-31.998;115.906;2022-07-12T12:37:48;11.10;99.90
5940;DHT22;2995;-31.998;115.906;2022-07-12T12:40:23;11.00;99.90
5940;DHT22;2995;-31.998;115.906;2022-07-12T12:43:06;11.00;99.90
5940;DHT22;2995;-31.998;115.906;2022-07-12T12:45:48;11.00;99.90
5940;DHT22;2995;-31.998;115.906;2022-07-12T12:48:21;11.00;99.90
5940;DHT22;2995;-31.998;115.906;2022-07-12T12:50:53;10.90;99.90
5940;DHT22;2995;-31.998;115.906;2022-07-12T12:53:27;10.80;99.90
5940;DHT22;2995;-31.998;115.906;2022-07-12T12:55:58;10.80;99.90
5940;DHT22;2995;-31.998;115.906;2022-07-12T12:58:30;10.80;99.90
5940;DHT22;2995;-31.998;115.906;2022-07-12T13:01:01;10.70;99.90
5940;DHT22;2995;-31.998;115.906;2022-07-12T13:03:32;10.60;99.90
5940;DHT22;2995;-31.998;115.906;2022-07-12T13:06:04;10.60;99.90
5940;DHT22;2995;-31.998;115.906;2022-07-12T13:08:37;10.50;99.90
5940;DHT22;2995;-31.998;115.906;2022-07-12T13:11:08;10.40;99.90
5940;DHT22;2995;-31.998;115.906;2022-07-12T13:13:50;10.40;99.90
5940;DHT22;2995;-31.998;115.906;2022-07-12T13:16:22;10.30;99.90
5940;DHT22;2995;-31.998;115.906;2022-07-12T13:18:53;10.30;99.90
5940;DHT22;2995;-31.998;115.906;2022-07-12T13:21:25;10.30;99.90
5940;DHT22;2995;-31.998;115.906;2022-07-12T13:23:58;10.20;99.90
5940;DHT22;2995;-31.998;115.906;2022-07-12T13:26:30;10.20;99.90
5940;DHT22;2995;-31.998;115.906;2022-07-12T13:29:01;10.10;99.90
5940;DHT22;2995;-31.998;115.906;2022-07-12T13:31:32;10.10;99.90
5940;DHT22;2995;-31.998;115.906;2022-07-12T13:34:03;10.00;99.90
5940;DHT22;2995;-31.998;115.906;2022-07-12T13:36:35;10.00;99.90
5940;DHT22;2995;-31.998;115.906;2022-07-12T13:39:08;10.10;99.90
5940;DHT22;2995;-31.998;115.906;2022-07-12T13:41:59;10.00;99.90
5940;DHT22;2995;-31.998;115.906;2022-07-12T13:44:31;9.90;99.90
5940;DHT22;2995;-31.998;115.906;2022-07-12T13:47:02;9.90;99.90
5940;DHT22;2995;-31.998;115.906;2022-07-12T13:49:33;9.90;99.90
5940;DHT22;2995;-31.998;115.906;2022-07-12T13:52:05;10.00;99.90
5940;DHT22;2995;-31.998;115.906;2022-07-12T13:54:38;9.90;99.90
5940;DHT22;2995;-31.998;115.906;2022-07-12T13:57:11;9.80;99.90
5940;DHT22;2995;-31.998;115.906;2022-07-12T13:59:42;9.80;99.90
5940;DHT22;2995;-31.998;115.906;2022-07-12T14:02:14;9.80;99.90
5940;DHT22;2995;-31.998;115.906;2022-07-12T14:04:45;9.80;99.90
5940;DHT22;2995;-31.998;115.906;2022-07-12T14:07:17;9.80;99.90
5940;DHT22;2995;-31.998;115.906;2022-07-12T14:09:50;9.80;99.90
5940;DHT22;2995;-31.998;115.906;2022-07-12T14:12:21;9.70;99.90
5940;DHT22;2995;-31.998;115.906;2022-07-12T14:14:53;9.60;99.90
5940;DHT22;2995;-31.998;115.906;2022-07-12T14:17:40;9.50;99.90
5940;DHT22;2995;-31.998;115.906;2022-07-12T14:20:13;9.50;99.90
5940;DHT22;2995;-31.998;115.906;2022-07-12T14:22:45;9.50;99.90
5940;DHT22;2995;-31.998;115.906;2022-07-12T14:25:18;9.50;99.90
5940;DHT22;2995;-31.998;115.906;2022-07-12T14:27:50;9.50;99.90
5940;DHT22;2995;-31.998;115.906;2022-07-12T14:30:21;9.40;99.90
5940;DHT22;2995;-31.998;115.906;2022-07-12T14:32:53;9.30;99.90
5940;DHT22;2995;-31.998;115.906;2022-07-12T14:35:24;9.30;99.90
5940;DHT22;2995;-31.998;115.906;2022-07-12T14:37:56;9.30;99.90
5940;DHT22;2995;-31.998;115.906;2022-07-12T14:40:29;9.20;99.90
5940;DHT22;2995;-31.998;115.906;2022-07-12T14:43:00;9.20;99.90
5940;DHT22;2995;-31.998;115.906;2022-07-12T14:45:31;9.20;99.90
5940;DHT22;2995;-31.998;115.906;2022-07-12T14:48:02;9.20;99.90
5940;DHT22;2995;-31.998;115.906;2022-07-12T14:50:34;9.20;99.90
5940;DHT22;2995;-31.998;115.906;2022-07-12T14:53:05;9.10;99.90
5940;DHT22;2995;-31.998;115.906;2022-07-12T14:55:38;9.00;99.90
5940;DHT22;2995;-31.998;115.906;2022-07-12T14:58:10;9.00;99.90
5940;DHT22;2995;-31.998;115.906;2022-07-12T15:00:41;9.00;99.90
5940;DHT22;2995;-31.998;115.906;2022-07-12T15:03:12;8.90;99.90
5940;DHT22;2995;-31.998;115.906;2022-07-12T15:05:44;8.90;99.90
5940;DHT22;2995;-31.998;115.906;2022-07-12T15:08:15;8.80;99.90
5940;DHT22;2995;-31.998;115.906;2022-07-12T15:10:48;8.80;99.90
5940;DHT22;2995;-31.998;115.906;2022-07-12T15:13:19;8.80;99.90
5940;DHT22;2995;-31.998;115.906;2022-07-12T15:15:51;8.80;99.90
5940;DHT22;2995;-31.998;115.906;2022-07-12T15:18:23;8.80;99.90
5940;DHT22;2995;-31.998;115.906;2022-07-12T15:20:54;8.70;99.90
5940;DHT22;2995;-31.998;115.906;2022-07-12T15:23:26;8.60;99.90
5940;DHT22;2995;-31.998;115.906;2022-07-12T15:25:59;8.70;99.90
5940;DHT22;2995;-31.998;115.906;2022-07-12T15:28:31;8.70;99.90
5940;DHT22;2995;-31.998;115.906;2022-07-12T15:31:02;8.60;99.90
5940;DHT22;2995;-31.998;115.906;2022-07-12T15:33:36;8.60;99.90
5940;DHT22;2995;-31.998;115.906;2022-07-12T15:36:07;8.60;99.90
5940;DHT22;2995;-31.998;115.906;2022-07-12T15:38:40;8.60;99.90
5940;DHT22;2995;-31.998;115.906;2022-07-12T15:41:14;8.50;99.90
5940;DHT22;2995;-31.998;115.906;2022-07-12T15:43:46;8.50;99.90
5940;DHT22;2995;-31.998;115.906;2022-07-12T15:46:17;8.50;99.90
5940;DHT22;2995;-31.998;115.906;2022-07-12T15:48:49;8.40;99.90
5940;DHT22;2995;-31.998;115.906;2022-07-12T15:51:20;8.40;99.90
5940;DHT22;2995;-31.998;115.906;2022-07-12T15:54:11;8.40;99.90
5940;DHT22;2995;-31.998;115.906;2022-07-12T15:56:43;8.40;99.90